sensor_id;sensor_type;location;lat;lon;timestamp;temperature;humidity
9723;DHT22;4900;49.306;8.500;2023-08-12T00:01:03;23.66;64.80
9723;DHT22;4900;49.306;8.500;2023-08-12T00:03:29;23.69;64.96
9723;DHT22;4900;49.306;8.500;2023-08-12T00:05:54;23.65;64.97
9723;DHT22;4900;49.306;8.500;2023-08-12T00:08:21;23.65;64.80
9723;DHT22;4900;49.306;8.500;2023-08-12T00:10:47;23.64;65.23
9723;DHT22;4900;49.306;8.500;2023-08-12T00:13:12;23.62;65.20
9723;DHT22;4900;49.306;8.500;2023-08-12T00:15:40;23.62;65.22
9723;DHT22;4900;49.306;8.500;2023-08-12T00:18:06;23.61;65.41
9723;DHT22;4900;49.306;8.500;2023-08-12T00:20:32;23.68;65.49
9723;DHT22;4900;49.306;8.500;2023-08-12T00:22:57;23.68;65.50
9723;DHT22;4900;49.306;8.500;2023-08-12T00:25:22;23.69;65.27
9723;DHT22;4900;49.306;8.500;2023-08-12T00:27:48;23.69;65.20
9723;DHT22;4900;49.306;8.500;2023-08-12T00:30:14;23.72;65.26
9723;DHT22;4900;49.306;8.500;2023-08-12T00:32:39;23.72;65.17
9723;DHT22;4900;49.306;8.500;2023-08-12T00:35:06;23.77;65.01
9723;DHT22;4900;49.306;8.500;2023-08-12T00:37:31;23.75;64.87
9723;DHT22;4900;49.306;8.500;2023-08-12T00:39:57;23.78;64.70
9723;DHT22;4900;49.306;8.500;2023-08-12T00:42:22;23.81;64.63
9723;DHT22;4900;49.306;8.500;2023-08-12T00:44:47;23.79;64.72
9723;DHT22;4900;49.306;8.500;2023-08-12T00:47:13;23.81;64.72
9723;DHT22;4900;49.306;8.500;2023-08-12T00:49:39;23.81;64.87
9723;DHT22;4900;49.306;8.500;2023-08-12T00:52:05;23.84;64.83
9723;DHT22;4900;49.306;8.500;2023-08-12T00:54:31;23.82;64.87
9723;DHT22;4900;49.306;8.500;2023-08-12T00:56:57;23.81;64.88
9723;DHT22;4900;49.306;8.500;2023-08-12T00:59:22;23.84;64.91
9723;DHT22;4900;49.306;8.500;2023-08-12T01:01:48;23.84;64.83
9723;DHT22;4900;49.306;8.500;2023-08-12T01:04:14;23.81;64.74
9723;DHT22;4900;49.306;8.500;2023-08-12T01:06:40;23.82;64.72
9723;DHT22;4900;49.306;8.500;2023-08-12T01:09:06;23.82;64.62
9723;DHT22;4900;49.306;8.500;2023-08-12T01:12:03;23.81;64.57
9723;DHT22;4900;49.306;8.500;2023-08-12T01:15:10;23.81;64.75
9723;DHT22;4900;49.306;8.500;2023-08-12T01:17:29;23.81;64.73
9723;DHT22;4900;49.306;8.500;2023-08-12T01:19:56;23.81;64.58
9723;DHT22;4900;49.306;8.500;2023-08-12T01:22:22;23.81;64.75
9723;DHT22;4900;49.306;8.500;2023-08-12T01:24:48;23.82;64.62
9723;DHT22;4900;49.306;8.500;2023-08-12T01:27:14;23.82;64.68
9723;DHT22;4900;49.306;8.500;2023-08-12T01:29:42;23.82;65.04
9723;DHT22;4900;49.306;8.500;2023-08-12T01:37:40;23.82;65.98
9723;DHT22;4900;49.306;8.500;2023-08-12T01:40:06;23.79;66.07
9723;DHT22;4900;49.306;8.500;2023-08-12T01:42:34;23.77;66.27
9723;DHT22;4900;49.306;8.500;2023-08-12T01:45:00;23.77;66.36
9723;DHT22;4900;49.306;8.500;2023-08-12T01:47:29;23.75;66.36
9723;DHT22;4900;49.306;8.500;2023-08-12T01:49:55;23.78;66.20
9723;DHT22;4900;49.306;8.500;2023-08-12T01:52:21;23.78;66.16
9723;DHT22;4900;49.306;8.500;2023-08-12T01:54:46;23.78;66.19
9723;DHT22;4900;49.306;8.500;2023-08-12T01:57:12;23.72;66.31
9723;DHT22;4900;49.306;8.500;2023-08-12T01:59:38;23.72;66.60
9723;DHT22;4900;49.306;8.500;2023-08-12T02:02:04;23.68;66.83
9723;DHT22;4900;49.306;8.500;2023-08-12T02:04:29;23.65;66.99
9723;DHT22;4900;49.306;8.500;2023-08-12T02:06:56;23.62;67.02
9723;DHT22;4900;49.306;8.500;2023-08-12T02:09:22;23.62;67.04
9723;DHT22;4900;49.306;8.500;2023-08-12T02:11:48;23.59;67.14
9723;DHT22;4900;49.306;8.500;2023-08-12T02:14:14;23.57;67.02
9723;DHT22;4900;49.306;8.500;2023-08-12T02:16:39;23.55;67.04
9723;DHT22;4900;49.306;8.500;2023-08-12T02:19:04;23.54;67.12
9723;DHT22;4900;49.306;8.500;2023-08-12T02:21:30;23.51;67.21
9723;DHT22;4900;49.306;8.500;2023-08-12T02:23:55;23.51;67.24
9723;DHT22;4900;49.306;8.500;2023-08-12T02:26:20;23.45;67.16
9723;DHT22;4900;49.306;8.500;2023-08-12T02:28:46;23.48;67.06
9723;DHT22;4900;49.306;8.500;2023-08-12T02:31:11;23.45;67.16
9723;DHT22;4900;49.306;8.500;2023-08-12T02:33:37;23.47;67.04
9723;DHT22;4900;49.306;8.500;2023-08-12T02:36:02;23.48;66.95
9723;DHT22;4900;49.306;8.500;2023-08-12T02:38:28;23.50;67.00
9723;DHT22;4900;49.306;8.500;2023-08-12T02:40:53;23.45;67.02
9723;DHT22;4900;49.306;8.500;2023-08-12T02:43:19;23.45;66.97
9723;DHT22;4900;49.306;8.500;2023-08-12T02:45:44;23.50;66.91
9723;DHT22;4900;49.306;8.500;2023-08-12T02:48:10;23.47;66.90
9723;DHT22;4900;49.306;8.500;2023-08-12T02:50:36;23.47;66.97
9723;DHT22;4900;49.306;8.500;2023-08-12T02:53:02;23.50;67.08
9723;DHT22;4900;49.306;8.500;2023-08-12T02:55:27;23.48;67.34
9723;DHT22;4900;49.306;8.500;2023-08-12T02:57:53;23.50;67.52
9723;DHT22;4900;49.306;8.500;2023-08-12T03:00:19;23.51;67.61
9723;DHT22;4900;49.306;8.500;2023-08-12T03:02:44;23.50;67.53
9723;DHT22;4900;49.306;8.500;2023-08-12T03:05:09;23.52;67.50
9723;DHT22;4900;49.306;8.500;2023-08-12T03:07:35;23.50;67.49
9723;DHT22;4900;49.306;8.500;2023-08-12T03:10:00;23.50;67.54
9723;DHT22;4900;49.306;8.500;2023-08-12T03:12:26;23.45;67.59
9723;DHT22;4900;49.306;8.500;2023-08-12T03:14:52;23.43;67.76
9723;DHT22;4900;49.306;8.500;2023-08-12T03:17:18;23.44;67.93
9723;DHT22;4900;49.306;8.500;2023-08-12T03:19:43;23.40;67.94
9723;DHT22;4900;49.306;8.500;2023-08-12T03:22:09;23.41;67.89
9723;DHT22;4900;49.306;8.500;2023-08-12T03:24:34;23.38;67.96
9723;DHT22;4900;49.306;8.500;2023-08-12T03:26:59;23.37;68.02
9723;DHT22;4900;49.306;8.500;2023-08-12T03:29:25;23.37;68.13
9723;DHT22;4900;49.306;8.500;2023-08-12T03:31:50;23.35;68.15
9723;DHT22;4900;49.306;8.500;2023-08-12T03:34:16;23.35;67.91
9723;DHT22;4900;49.306;8.500;2023-08-12T03:36:41;23.37;68.07
9723;DHT22;4900;49.306;8.500;2023-08-12T03:39:07;23.35;68.05
9723;DHT22;4900;49.306;8.500;2023-08-12T03:41:32;23.37;68.13
9723;DHT22;4900;49.306;8.500;2023-08-12T03:43:57;23.37;68.06
9723;DHT22;4900;49.306;8.500;2023-08-12T03:46:23;23.35;68.14
9723;DHT22;4900;49.306;8.500;2023-08-12T03:48:49;23.35;68.01
9723;DHT22;4900;49.306;8.500;2023-08-12T03:51:14;23.35;68.05
9723;DHT22;4900;49.306;8.500;2023-08-12T03:53:39;23.34;68.06
9723;DHT22;4900;49.306;8.500;2023-08-12T03:56:05;23.34;68.07
9723;DHT22;4900;49.306;8.500;2023-08-12T03:58:30;23.35;68.11
9723;DHT22;4900;49.306;8.500;2023-08-12T04:00:56;23.34;68.19
9723;DHT22;4900;49.306;8.500;2023-08-12T04:03:21;23.33;68.34
9723;DHT22;4900;49.306;8.500;2023-08-12T04:05:52;23.31;68.47
9723;DHT22;4900;49.306;8.500;2023-08-12T04:08:20;23.31;68.43
9723;DHT22;4900;49.306;8.500;2023-08-12T04:10:46;23.30;68.35
9723;DHT22;4900;49.306;8.500;2023-08-12T04:13:13;23.30;68.15
9723;DHT22;4900;49.306;8.500;2023-08-12T04:15:39;23.27;68.24
9723;DHT22;4900;49.306;8.500;2023-08-12T04:18:05;23.24;68.38
9723;DHT22;4900;49.306;8.500;2023-08-12T04:20:30;23.23;68.48
9723;DHT22;4900;49.306;8.500;2023-08-12T04:22:55;23.22;68.37
9723;DHT22;4900;49.306;8.500;2023-08-12T04:25:21;23.20;68.18
9723;DHT22;4900;49.306;8.500;2023-08-12T04:27:47;23.17;68.26
9723;DHT22;4900;49.306;8.500;2023-08-12T04:30:15;23.19;68.29
9723;DHT22;4900;49.306;8.500;2023-08-12T04:32:41;23.19;68.40
9723;DHT22;4900;49.306;8.500;2023-08-12T04:35:07;23.19;68.40
9723;DHT22;4900;49.306;8.500;2023-08-12T04:37:32;23.20;68.30
9723;DHT22;4900;49.306;8.500;2023-08-12T04:39:58;23.19;68.51
9723;DHT22;4900;49.306;8.500;2023-08-12T04:42:23;23.20;68.71
9723;DHT22;4900;49.306;8.500;2023-08-12T04:44:49;23.22;68.95
9723;DHT22;4900;49.306;8.500;2023-08-12T04:47:15;23.22;68.89
9723;DHT22;4900;49.306;8.500;2023-08-12T04:49:40;23.27;68.62
9723;DHT22;4900;49.306;8.500;2023-08-12T04:52:05;23.27;68.81
9723;DHT22;4900;49.306;8.500;2023-08-12T04:54:32;23.31;69.08
9723;DHT22;4900;49.306;8.500;2023-08-12T04:56:58;23.33;68.87
9723;DHT22;4900;49.306;8.500;2023-08-12T04:59:24;23.38;69.05
9723;DHT22;4900;49.306;8.500;2023-08-12T05:01:50;23.41;68.92
9723;DHT22;4900;49.306;8.500;2023-08-12T05:04:15;23.44;68.75
9723;DHT22;4900;49.306;8.500;2023-08-12T05:06:41;23.51;68.77
9723;DHT22;4900;49.306;8.500;2023-08-12T05:09:06;23.55;68.62
9723;DHT22;4900;49.306;8.500;2023-08-12T05:11:32;23.58;68.34
9723;DHT22;4900;49.306;8.500;2023-08-12T05:13:57;23.64;68.14
9723;DHT22;4900;49.306;8.500;2023-08-12T05:16:22;23.66;67.85
9723;DHT22;4900;49.306;8.500;2023-08-12T05:18:48;23.71;67.62
9723;DHT22;4900;49.306;8.500;2023-08-12T05:21:13;23.77;67.59
9723;DHT22;4900;49.306;8.500;2023-08-12T05:23:38;23.81;67.49
9723;DHT22;4900;49.306;8.500;2023-08-12T05:26:04;23.82;67.28
9723;DHT22;4900;49.306;8.500;2023-08-12T05:28:29;23.85;67.11
9723;DHT22;4900;49.306;8.500;2023-08-12T05:30:54;23.85;67.00
9723;DHT22;4900;49.306;8.500;2023-08-12T05:33:21;23.88;67.01
9723;DHT22;4900;49.306;8.500;2023-08-12T05:35:50;23.86;66.92
9723;DHT22;4900;49.306;8.500;2023-08-12T05:38:15;23.86;66.71
9723;DHT22;4900;49.306;8.500;2023-08-12T05:40:41;23.88;66.59
9723;DHT22;4900;49.306;8.500;2023-08-12T05:43:07;23.89;66.53
9723;DHT22;4900;49.306;8.500;2023-08-12T05:45:32;23.89;66.55
9723;DHT22;4900;49.306;8.500;2023-08-12T05:47:58;23.93;66.42
9723;DHT22;4900;49.306;8.500;2023-08-12T05:50:23;23.98;66.54
9723;DHT22;4900;49.306;8.500;2023-08-12T05:52:48;23.99;66.61
9723;DHT22;4900;49.306;8.500;2023-08-12T05:55:14;24.06;66.33
9723;DHT22;4900;49.306;8.500;2023-08-12T05:57:39;24.17;66.05
9723;DHT22;4900;49.306;8.500;2023-08-12T06:00:05;24.27;65.72
9723;DHT22;4900;49.306;8.500;2023-08-12T06:02:31;24.37;65.39
9723;DHT22;4900;49.306;8.500;2023-08-12T06:04:57;24.47;65.06
9723;DHT22;4900;49.306;8.500;2023-08-12T06:07:22;24.55;64.93
9723;DHT22;4900;49.306;8.500;2023-08-12T06:09:49;24.62;64.61
9723;DHT22;4900;49.306;8.500;2023-08-12T06:12:15;24.69;64.55
9723;DHT22;4900;49.306;8.500;2023-08-12T06:14:40;24.76;64.21
9723;DHT22;4900;49.306;8.500;2023-08-12T06:17:06;24.94;63.96
9723;DHT22;4900;49.306;8.500;2023-08-12T06:19:31;25.07;63.52
9723;DHT22;4900;49.306;8.500;2023-08-12T06:21:57;25.26;63.17
9723;DHT22;4900;49.306;8.500;2023-08-12T06:24:23;25.34;62.90
9723;DHT22;4900;49.306;8.500;2023-08-12T06:26:49;25.41;62.59
9723;DHT22;4900;49.306;8.500;2023-08-12T06:29:14;25.53;62.47
9723;DHT22;4900;49.306;8.500;2023-08-12T06:31:39;25.77;62.36
9723;DHT22;4900;49.306;8.500;2023-08-12T06:34:05;26.26;61.31
9723;DHT22;4900;49.306;8.500;2023-08-12T06:36:30;26.71;60.44
9723;DHT22;4900;49.306;8.500;2023-08-12T06:38:56;27.33;58.98
9723;DHT22;4900;49.306;8.500;2023-08-12T06:41:21;27.57;58.10
9723;DHT22;4900;49.306;8.500;2023-08-12T06:43:47;27.68;57.70
9723;DHT22;4900;49.306;8.500;2023-08-12T06:46:12;27.71;57.40
9723;DHT22;4900;49.306;8.500;2023-08-12T06:48:37;27.68;57.46
9723;DHT22;4900;49.306;8.500;2023-08-12T06:51:03;27.58;57.65
9723;DHT22;4900;49.306;8.500;2023-08-12T06:53:36;27.54;57.74
9723;DHT22;4900;49.306;8.500;2023-08-12T06:56:01;27.46;58.21
9723;DHT22;4900;49.306;8.500;2023-08-12T06:58:27;27.50;58.40
9723;DHT22;4900;49.306;8.500;2023-08-12T07:00:52;27.59;58.42
9723;DHT22;4900;49.306;8.500;2023-08-12T07:03:18;27.89;58.13
9723;DHT22;4900;49.306;8.500;2023-08-12T07:05:44;28.31;57.14
9723;DHT22;4900;49.306;8.500;2023-08-12T07:08:10;28.55;56.70
9723;DHT22;4900;49.306;8.500;2023-08-12T07:10:38;28.69;56.10
9723;DHT22;4900;49.306;8.500;2023-08-12T07:13:04;28.68;55.91
9723;DHT22;4900;49.306;8.500;2023-08-12T07:15:29;28.69;55.80
9723;DHT22;4900;49.306;8.500;2023-08-12T07:17:55;28.67;55.89
9723;DHT22;4900;49.306;8.500;2023-08-12T07:20:20;28.68;55.96
9723;DHT22;4900;49.306;8.500;2023-08-12T07:22:46;28.63;56.08
9723;DHT22;4900;49.306;8.500;2023-08-12T07:25:11;28.71;56.11
9723;DHT22;4900;49.306;8.500;2023-08-12T07:27:37;28.74;56.37
9723;DHT22;4900;49.306;8.500;2023-08-12T07:30:02;28.68;56.60
9723;DHT22;4900;49.306;8.500;2023-08-12T07:32:28;28.75;56.82
9723;DHT22;4900;49.306;8.500;2023-08-12T07:34:53;28.79;56.88
9723;DHT22;4900;49.306;8.500;2023-08-12T07:37:19;28.91;56.64
9723;DHT22;4900;49.306;8.500;2023-08-12T07:39:44;29.06;56.43
9723;DHT22;4900;49.306;8.500;2023-08-12T07:42:10;29.16;56.28
9723;DHT22;4900;49.306;8.500;2023-08-12T07:44:36;29.29;55.76
9723;DHT22;4900;49.306;8.500;2023-08-12T07:47:01;29.72;55.04
9723;DHT22;4900;49.306;8.500;2023-08-12T07:49:26;29.92;54.32
9723;DHT22;4900;49.306;8.500;2023-08-12T07:51:52;30.30;53.41
9723;DHT22;4900;49.306;8.500;2023-08-12T07:54:17;30.90;52.34
9723;DHT22;4900;49.306;8.500;2023-08-12T07:56:42;31.35;50.92
9723;DHT22;4900;49.306;8.500;2023-08-12T07:59:08;31.95;49.85
9723;DHT22;4900;49.306;8.500;2023-08-12T08:01:33;32.68;48.62
9723;DHT22;4900;49.306;8.500;2023-08-12T08:03:59;33.09;47.53
9723;DHT22;4900;49.306;8.500;2023-08-12T08:06:24;33.80;46.31
9723;DHT22;4900;49.306;8.500;2023-08-12T08:08:50;34.57;44.67
9723;DHT22;4900;49.306;8.500;2023-08-12T08:11:15;34.83;43.42
9723;DHT22;4900;49.306;8.500;2023-08-12T08:13:40;34.71;43.29
9723;DHT22;4900;49.306;8.500;2023-08-12T08:16:06;34.31;43.79
9723;DHT22;4900;49.306;8.500;2023-08-12T08:18:31;34.70;43.67
9723;DHT22;4900;49.306;8.500;2023-08-12T08:20:57;35.08;42.66
9723;DHT22;4900;49.306;8.500;2023-08-12T08:23:22;35.22;42.54
9723;DHT22;4900;49.306;8.500;2023-08-12T08:25:47;34.99;42.66
9723;DHT22;4900;49.306;8.500;2023-08-12T08:28:13;34.99;42.93
9723;DHT22;4900;49.306;8.500;2023-08-12T08:30:38;35.09;43.29
9723;DHT22;4900;49.306;8.500;2023-08-12T08:33:04;35.77;42.29
9723;DHT22;4900;49.306;8.500;2023-08-12T08:35:30;36.08;41.50
9723;DHT22;4900;49.306;8.500;2023-08-12T08:37:55;36.62;41.02
9723;DHT22;4900;49.306;8.500;2023-08-12T08:40:20;36.49;40.88
9723;DHT22;4900;49.306;8.500;2023-08-12T08:42:46;36.32;41.04
9723;DHT22;4900;49.306;8.500;2023-08-12T08:45:15;36.12;41.25
9723;DHT22;4900;49.306;8.500;2023-08-12T08:47:41;36.06;40.69
9723;DHT22;4900;49.306;8.500;2023-08-12T08:50:08;35.72;41.08
9723;DHT22;4900;49.306;8.500;2023-08-12T08:52:34;35.49;41.11
9723;DHT22;4900;49.306;8.500;2023-08-12T08:55:03;35.39;41.62
9723;DHT22;4900;49.306;8.500;2023-08-12T08:57:29;35.41;41.89
9723;DHT22;4900;49.306;8.500;2023-08-12T08:59:55;35.45;42.17
9723;DHT22;4900;49.306;8.500;2023-08-12T09:02:20;35.73;41.77
9723;DHT22;4900;49.306;8.500;2023-08-12T09:04:46;36.43;41.01
9723;DHT22;4900;49.306;8.500;2023-08-12T09:07:12;36.93;39.62
9723;DHT22;4900;49.306;8.500;2023-08-12T09:09:45;37.49;38.87
9723;DHT22;4900;49.306;8.500;2023-08-12T09:12:15;37.79;38.24
9723;DHT22;4900;49.306;8.500;2023-08-12T09:14:41;38.04;37.30
9723;DHT22;4900;49.306;8.500;2023-08-12T09:17:07;37.63;38.21
9723;DHT22;4900;49.306;8.500;2023-08-12T09:19:33;36.84;39.01
9723;DHT22;4900;49.306;8.500;2023-08-12T09:21:58;36.57;39.99
9723;DHT22;4900;49.306;8.500;2023-08-12T09:24:25;35.66;40.72
9723;DHT22;4900;49.306;8.500;2023-08-12T09:26:54;35.25;40.56
9723;DHT22;4900;49.306;8.500;2023-08-12T09:29:34;35.32;40.37
9723;DHT22;4900;49.306;8.500;2023-08-12T09:32:11;35.83;40.42
9723;DHT22;4900;49.306;8.500;2023-08-12T09:34:50;36.31;40.55
9723;DHT22;4900;49.306;8.500;2023-08-12T09:37:17;36.48;39.92
9723;DHT22;4900;49.306;8.500;2023-08-12T09:39:42;36.66;39.67
9723;DHT22;4900;49.306;8.500;2023-08-12T09:42:09;36.73;39.52
9723;DHT22;4900;49.306;8.500;2023-08-12T09:44:35;36.75;39.98
9723;DHT22;4900;49.306;8.500;2023-08-12T09:47:01;37.28;39.14
9723;DHT22;4900;49.306;8.500;2023-08-12T09:49:26;38.23;37.90
9723;DHT22;4900;49.306;8.500;2023-08-12T09:51:53;38.27;37.20
9723;DHT22;4900;49.306;8.500;2023-08-12T09:54:18;38.41;37.60
9723;DHT22;4900;49.306;8.500;2023-08-12T09:56:47;38.45;37.66
9723;DHT22;4900;49.306;8.500;2023-08-12T09:59:18;38.51;37.35
9723;DHT22;4900;49.306;8.500;2023-08-12T10:01:45;38.47;37.42
9723;DHT22;4900;49.306;8.500;2023-08-12T10:04:11;38.41;37.32
9723;DHT22;4900;49.306;8.500;2023-08-12T10:06:40;38.68;37.25
9723;DHT22;4900;49.306;8.500;2023-08-12T10:09:06;38.61;37.05
9723;DHT22;4900;49.306;8.500;2023-08-12T10:11:34;38.49;37.30
9723;DHT22;4900;49.306;8.500;2023-08-12T10:14:00;38.11;37.66
9723;DHT22;4900;49.306;8.500;2023-08-12T10:16:29;37.90;37.95
9723;DHT22;4900;49.306;8.500;2023-08-12T10:18:56;37.58;38.50
9723;DHT22;4900;49.306;8.500;2023-08-12T10:21:22;37.52;38.64
9723;DHT22;4900;49.306;8.500;2023-08-12T10:23:50;37.25;39.09
9723;DHT22;4900;49.306;8.500;2023-08-12T10:26:17;37.01;39.36
9723;DHT22;4900;49.306;8.500;2023-08-12T10:28:43;36.73;39.95
9723;DHT22;4900;49.306;8.500;2023-08-12T10:31:11;36.73;40.34
9723;DHT22;4900;49.306;8.500;2023-08-12T10:33:40;36.66;40.80
9723;DHT22;4900;49.306;8.500;2023-08-12T10:36:07;36.72;40.97
9723;DHT22;4900;49.306;8.500;2023-08-12T10:38:33;36.84;41.33
9723;DHT22;4900;49.306;8.500;2023-08-12T10:44:00;37.73;39.95
9723;DHT22;4900;49.306;8.500;2023-08-12T10:49:03;39.27;37.94
9723;DHT22;4900;49.306;8.500;2023-08-12T10:57:06;38.07;38.45
9723;DHT22;4900;49.306;8.500;2023-08-12T11:04:52;36.42;40.97
9723;DHT22;4900;49.306;8.500;2023-08-12T11:07:19;35.78;42.10
9723;DHT22;4900;49.306;8.500;2023-08-12T11:09:45;35.24;43.06
9723;DHT22;4900;49.306;8.500;2023-08-12T11:12:11;34.71;44.87
9723;DHT22;4900;49.306;8.500;2023-08-12T11:14:53;33.85;47.16
9723;DHT22;4900;49.306;8.500;2023-08-12T11:17:18;33.26;49.92
9723;DHT22;4900;49.306;8.500;2023-08-12T11:19:44;32.75;51.11
9723;DHT22;4900;49.306;8.500;2023-08-12T11:22:10;32.27;52.43
9723;DHT22;4900;49.306;8.500;2023-08-12T11:24:40;31.88;53.74
9723;DHT22;4900;49.306;8.500;2023-08-12T11:27:09;31.51;54.78
9723;DHT22;4900;49.306;8.500;2023-08-12T11:29:37;31.17;55.63
9723;DHT22;4900;49.306;8.500;2023-08-12T11:32:02;30.76;57.33
9723;DHT22;4900;49.306;8.500;2023-08-12T11:34:28;30.23;58.46
9723;DHT22;4900;49.306;8.500;2023-08-12T11:36:56;29.73;58.82
9723;DHT22;4900;49.306;8.500;2023-08-12T11:39:21;29.33;59.21
9723;DHT22;4900;49.306;8.500;2023-08-12T11:41:46;29.16;58.92
9723;DHT22;4900;49.306;8.500;2023-08-12T11:44:15;28.99;58.88
9723;DHT22;4900;49.306;8.500;2023-08-12T11:46:40;28.75;59.39
9723;DHT22;4900;49.306;8.500;2023-08-12T11:49:06;28.63;59.69
9723;DHT22;4900;49.306;8.500;2023-08-12T11:51:32;28.58;59.70
9723;DHT22;4900;49.306;8.500;2023-08-12T11:53:58;28.60;59.64
9723;DHT22;4900;49.306;8.500;2023-08-12T11:56:24;28.72;59.93
9723;DHT22;4900;49.306;8.500;2023-08-12T11:58:52;28.88;59.94
9723;DHT22;4900;49.306;8.500;2023-08-12T12:01:18;29.07;59.86
9723;DHT22;4900;49.306;8.500;2023-08-12T12:03:43;29.51;58.76
9723;DHT22;4900;49.306;8.500;2023-08-12T12:06:09;30.48;57.47
9723;DHT22;4900;49.306;8.500;2023-08-12T12:08:34;31.65;56.54
9723;DHT22;4900;49.306;8.500;2023-08-12T12:11:04;32.53;55.09
9723;DHT22;4900;49.306;8.500;2023-08-12T12:13:30;33.03;53.27
9723;DHT22;4900;49.306;8.500;2023-08-12T12:15:55;33.31;52.46
9723;DHT22;4900;49.306;8.500;2023-08-12T12:18:25;33.53;51.77
9723;DHT22;4900;49.306;8.500;2023-08-12T12:20:58;33.60;51.40
9723;DHT22;4900;49.306;8.500;2023-08-12T12:23:30;33.68;51.34
9723;DHT22;4900;49.306;8.500;2023-08-12T12:26:03;33.88;50.66
9723;DHT22;4900;49.306;8.500;2023-08-12T12:28:28;34.42;49.66
9723;DHT22;4900;49.306;8.500;2023-08-12T12:30:54;35.04;48.74
9723;DHT22;4900;49.306;8.500;2023-08-12T12:33:20;35.59;48.23
9723;DHT22;4900;49.306;8.500;2023-08-12T12:35:45;35.86;47.65
9723;DHT22;4900;49.306;8.500;2023-08-12T12:38:11;35.97;46.68
9723;DHT22;4900;49.306;8.500;2023-08-12T12:40:36;35.95;45.68
9723;DHT22;4900;49.306;8.500;2023-08-12T12:43:03;35.73;45.93
9723;DHT22;4900;49.306;8.500;2023-08-12T12:45:29;35.60;45.57
9723;DHT22;4900;49.306;8.500;2023-08-12T12:47:54;35.35;45.63
9723;DHT22;4900;49.306;8.500;2023-08-12T12:50:20;34.84;46.24
9723;DHT22;4900;49.306;8.500;2023-08-12T12:52:45;34.32;47.35
9723;DHT22;4900;49.306;8.500;2023-08-12T12:55:10;33.99;48.73
9723;DHT22;4900;49.306;8.500;2023-08-12T12:57:36;34.39;49.75
9723;DHT22;4900;49.306;8.500;2023-08-12T13:00:01;34.64;49.04
9723;DHT22;4900;49.306;8.500;2023-08-12T13:02:29;34.77;48.75
9723;DHT22;4900;49.306;8.500;2023-08-12T13:04:54;34.76;49.11
9723;DHT22;4900;49.306;8.500;2023-08-12T13:07:20;34.95;49.24
9723;DHT22;4900;49.306;8.500;2023-08-12T13:09:46;35.04;48.59
9723;DHT22;4900;49.306;8.500;2023-08-12T13:12:11;35.05;48.55
9723;DHT22;4900;49.306;8.500;2023-08-12T13:14:37;34.92;48.84
9723;DHT22;4900;49.306;8.500;2023-08-12T13:17:02;34.68;49.60
9723;DHT22;4900;49.306;8.500;2023-08-12T13:19:28;34.63;49.72
9723;DHT22;4900;49.306;8.500;2023-08-12T13:21:53;34.46;50.05
9723;DHT22;4900;49.306;8.500;2023-08-12T13:24:19;34.70;49.98
9723;DHT22;4900;49.306;8.500;2023-08-12T13:26:45;34.90;49.56
9723;DHT22;4900;49.306;8.500;2023-08-12T13:29:10;35.05;49.39
9723;DHT22;4900;49.306;8.500;2023-08-12T13:31:36;35.09;48.86
9723;DHT22;4900;49.306;8.500;2023-08-12T13:34:01;35.28;49.09
9723;DHT22;4900;49.306;8.500;2023-08-12T13:36:28;35.50;48.17
9723;DHT22;4900;49.306;8.500;2023-08-12T13:38:53;35.57;48.11
9723;DHT22;4900;49.306;8.500;2023-08-12T13:41:19;35.70;48.34
9723;DHT22;4900;49.306;8.500;2023-08-12T13:43:44;35.76;48.18
9723;DHT22;4900;49.306;8.500;2023-08-12T13:46:10;35.77;47.58
9723;DHT22;4900;49.306;8.500;2023-08-12T13:48:35;35.64;47.57
9723;DHT22;4900;49.306;8.500;2023-08-12T13:51:00;35.26;48.22
9723;DHT22;4900;49.306;8.500;2023-08-12T13:53:26;34.86;49.31
9723;DHT22;4900;49.306;8.500;2023-08-12T13:55:51;34.52;49.87
9723;DHT22;4900;49.306;8.500;2023-08-12T13:58:17;34.20;50.37
9723;DHT22;4900;49.306;8.500;2023-08-12T14:00:42;33.85;51.01
9723;DHT22;4900;49.306;8.500;2023-08-12T14:03:07;33.45;52.14
9723;DHT22;4900;49.306;8.500;2023-08-12T14:05:33;33.23;52.75
9723;DHT22;4900;49.306;8.500;2023-08-12T14:07:59;33.18;53.39
9723;DHT22;4900;49.306;8.500;2023-08-12T14:10:24;33.11;53.88
9723;DHT22;4900;49.306;8.500;2023-08-12T14:12:49;32.92;54.50
9723;DHT22;4900;49.306;8.500;2023-08-12T14:15:15;32.86;55.23
9723;DHT22;4900;49.306;8.500;2023-08-12T14:17:40;32.86;55.39
9723;DHT22;4900;49.306;8.500;2023-08-12T14:20:06;32.75;55.37
9723;DHT22;4900;49.306;8.500;2023-08-12T14:22:34;32.74;55.40
9723;DHT22;4900;49.306;8.500;2023-08-12T14:25:00;32.74;55.45
9723;DHT22;4900;49.306;8.500;2023-08-12T14:27:26;32.67;55.34
9723;DHT22;4900;49.306;8.500;2023-08-12T14:29:51;32.45;55.98
9723;DHT22;4900;49.306;8.500;2023-08-12T14:32:16;32.24;56.22
9723;DHT22;4900;49.306;8.500;2023-08-12T14:34:44;32.10;56.86
9723;DHT22;4900;49.306;8.500;2023-08-12T14:37:11;31.89;57.30
9723;DHT22;4900;49.306;8.500;2023-08-12T14:39:37;31.69;57.49
9723;DHT22;4900;49.306;8.500;2023-08-12T14:42:03;31.45;58.11
9723;DHT22;4900;49.306;8.500;2023-08-12T14:44:29;31.22;58.77
9723;DHT22;4900;49.306;8.500;2023-08-12T14:46:59;31.07;59.18
9723;DHT22;4900;49.306;8.500;2023-08-12T14:49:25;30.98;59.51
9723;DHT22;4900;49.306;8.500;2023-08-12T14:51:50;30.85;59.93
9723;DHT22;4900;49.306;8.500;2023-08-12T14:54:15;30.71;60.36
9723;DHT22;4900;49.306;8.500;2023-08-12T14:56:41;30.54;61.06
9723;DHT22;4900;49.306;8.500;2023-08-12T14:59:06;30.45;61.22
9723;DHT22;4900;49.306;8.500;2023-08-12T15:01:32;30.30;61.68
9723;DHT22;4900;49.306;8.500;2023-08-12T15:03:57;30.12;62.00
9723;DHT22;4900;49.306;8.500;2023-08-12T15:06:23;29.96;62.36
9723;DHT22;4900;49.306;8.500;2023-08-12T15:08:49;30.03;62.32
9723;DHT22;4900;49.306;8.500;2023-08-12T15:11:14;30.17;62.40
9723;DHT22;4900;49.306;8.500;2023-08-12T15:13:40;30.31;62.32
9723;DHT22;4900;49.306;8.500;2023-08-12T15:16:05;30.54;62.19
9723;DHT22;4900;49.306;8.500;2023-08-12T15:18:31;30.76;62.14
9723;DHT22;4900;49.306;8.500;2023-08-12T15:20:56;30.96;61.52
9723;DHT22;4900;49.306;8.500;2023-08-12T15:23:21;31.06;61.22
9723;DHT22;4900;49.306;8.500;2023-08-12T15:25:47;31.09;60.81
9723;DHT22;4900;49.306;8.500;2023-08-12T15:28:12;31.06;60.46
9723;DHT22;4900;49.306;8.500;2023-08-12T15:30:38;31.03;60.40
9723;DHT22;4900;49.306;8.500;2023-08-12T15:33:05;30.99;60.43
9723;DHT22;4900;49.306;8.500;2023-08-12T15:35:30;30.88;60.67
9723;DHT22;4900;49.306;8.500;2023-08-12T15:37:56;30.82;60.79
9723;DHT22;4900;49.306;8.500;2023-08-12T15:40:22;30.72;60.92
9723;DHT22;4900;49.306;8.500;2023-08-12T15:42:49;30.65;61.35
9723;DHT22;4900;49.306;8.500;2023-08-12T15:45:15;30.60;61.68
9723;DHT22;4900;49.306;8.500;2023-08-12T15:47:41;30.34;62.38
9723;DHT22;4900;49.306;8.500;2023-08-12T15:50:07;30.20;62.47
9723;DHT22;4900;49.306;8.500;2023-08-12T15:52:33;29.99;62.68
9723;DHT22;4900;49.306;8.500;2023-08-12T15:55:01;29.88;62.76
9723;DHT22;4900;49.306;8.500;2023-08-12T15:57:26;29.64;63.13
9723;DHT22;4900;49.306;8.500;2023-08-12T15:59:53;29.50;63.20
9723;DHT22;4900;49.306;8.500;2023-08-12T16:02:18;29.45;63.12
9723;DHT22;4900;49.306;8.500;2023-08-12T16:04:44;29.41;62.92
9723;DHT22;4900;49.306;8.500;2023-08-12T16:07:09;29.25;63.26
9723;DHT22;4900;49.306;8.500;2023-08-12T16:09:35;29.17;63.21
9723;DHT22;4900;49.306;8.500;2023-08-12T16:12:00;29.13;63.30
9723;DHT22;4900;49.306;8.500;2023-08-12T16:14:25;29.06;63.38
9723;DHT22;4900;49.306;8.500;2023-08-12T16:16:51;29.10;63.24